sensor_id;sensor_type;location;lat;lon;timestamp;temperature;humidity
53954;HTU21D;39862;54.856;26.318;2022-12-22T01:19:39;4.1;73.7
53954;HTU21D;39862;54.856;26.318;2022-12-22T01:24:49;4.1;73.6
53954;HTU21D;39862;54.856;26.318;2022-12-22T01:29:37;4.1;73.6
53954;HTU21D;39862;54.856;26.318;2022-12-22T01:34:27;4.1;73.6
53954;HTU21D;39862;54.856;26.318;2022-12-22T01:39:39;4.2;73.5
53954;HTU21D;39862;54.856;26.318;2022-12-22T01:44:27;4.2;73.4
53954;HTU21D;39862;54.856;26.318;2022-12-22T01:49:38;4.2;73.3
53954;HTU21D;39862;54.856;26.318;2022-12-22T01:54:39;4.2;73.3
53954;HTU21D;39862;54.856;26.318;2022-12-22T02:00:01;4.2;73.2
53954;HTU21D;39862;54.856;26.318;2022-12-22T02:04:28;4.2;73.2
53954;HTU21D;39862;54.856;26.318;2022-12-22T02:09:30;4.2;73.2
53954;HTU21D;39862;54.856;26.318;2022-12-22T02:14:51;4.2;73.2
53954;HTU21D;39862;54.856;26.318;2022-12-22T02:19:33;4.2;73.2
53954;HTU21D;39862;54.856;26.318;2022-12-22T02:24:40;4.2;73.2
53954;HTU21D;39862;54.856;26.318;2022-12-22T02:30:02;4.2;73.2
53954;HTU21D;39862;54.856;26.318;2022-12-22T02:34:27;4.2;73.1
53954;HTU21D;39862;54.856;26.318;2022-12-22T02:39:30;4.2;73.1
53954;HTU21D;39862;54.856;26.318;2022-12-22T02:44:30;4.2;73.1
53954;HTU21D;39862;54.856;26.318;2022-12-22T02:49:38;4.2;73.1
53954;HTU21D;39862;54.856;26.318;2022-12-22T02:55:03;4.2;73.1
53954;HTU21D;39862;54.856;26.318;2022-12-22T02:59:27;4.2;73
53954;HTU21D;39862;54.856;26.318;2022-12-22T03:04:37;4.2;73
53954;HTU21D;39862;54.856;26.318;2022-12-22T03:09:27;4.2;73
53954;HTU21D;39862;54.856;26.318;2022-12-22T03:14:37;4.2;73
53954;HTU21D;39862;54.856;26.318;2022-12-22T03:19:27;4.1;73.1
53954;HTU21D;39862;54.856;26.318;2022-12-22T03:25:13;4.1;73.2
53954;HTU21D;39862;54.856;26.318;2022-12-22T03:29:37;4.1;73.2
53954;HTU21D;39862;54.856;26.318;2022-12-22T03:34:27;4.1;73.4
53954;HTU21D;39862;54.856;26.318;2022-12-22T03:39:27;4.1;73.5
53954;HTU21D;39862;54.856;26.318;2022-12-22T03:44:37;4.1;73.5
53954;HTU21D;39862;54.856;26.318;2022-12-22T03:49:51;4.1;73.6
53954;HTU21D;39862;54.856;26.318;2022-12-22T03:54:27;4.1;73.5
53954;HTU21D;39862;54.856;26.318;2022-12-22T03:59:27;4.1;73.5
53954;HTU21D;39862;54.856;26.318;2022-12-22T04:04:27;4.1;73.5
53954;HTU21D;39862;54.856;26.318;2022-12-22T04:09:43;4.1;73.6
53954;HTU21D;39862;54.856;26.318;2022-12-22T04:14:27;4.1;73.6
53954;HTU21D;39862;54.856;26.318;2022-12-22T04:19:27;4.1;73.6
53954;HTU21D;39862;54.856;26.318;2022-12-22T04:24:27;4.1;73.7
53954;HTU21D;39862;54.856;26.318;2022-12-22T04:29:27;4.1;73.7
53954;HTU21D;39862;54.856;26.318;2022-12-22T04:34:27;4.1;73.7
53954;HTU21D;39862;54.856;26.318;2022-12-22T04:39:35;4.1;73.7
53954;HTU21D;39862;54.856;26.318;2022-12-22T04:44:37;4.1;73.7
53954;HTU21D;39862;54.856;26.318;2022-12-22T04:49:27;4.1;73.7
53954;HTU21D;39862;54.856;26.318;2022-12-22T04:54:47;4.1;73.8
53954;HTU21D;39862;54.856;26.318;2022-12-22T04:59:39;4.1;73.7
53954;HTU21D;39862;54.856;26.318;2022-12-22T05:04:27;4.1;73.7
53954;HTU21D;39862;54.856;26.318;2022-12-22T05:09:27;4.1;73.7
53954;HTU21D;39862;54.856;26.318;2022-12-22T05:14:27;4.1;73.7
53954;HTU21D;39862;54.856;26.318;2022-12-22T05:19:27;4.1;73.6
53954;HTU21D;39862;54.856;26.318;2022-12-22T05:24:37;4.1;73.7
53954;HTU21D;39862;54.856;26.318;2022-12-22T05:29:47;4.1;73.7
53954;HTU21D;39862;54.856;26.318;2022-12-22T05:34:47;4.1;73.6
53954;HTU21D;39862;54.856;26.318;2022-12-22T05:39:37;4.1;73.6
53954;HTU21D;39862;54.856;26.318;2022-12-22T05:44:47;4.1;73.7
53954;HTU21D;39862;54.856;26.318;2022-12-22T05:49:27;4.1;73.7
53954;HTU21D;39862;54.856;26.318;2022-12-22T05:54:47;4.1;73.7
53954;HTU21D;39862;54.856;26.318;2022-12-22T05:59:49;4.1;73.7
53954;HTU21D;39862;54.856;26.318;2022-12-22T06:04:35;4.1;73.8
53954;HTU21D;39862;54.856;26.318;2022-12-22T06:09:27;4.1;73.7
53954;HTU21D;39862;54.856;26.318;2022-12-22T06:14:27;4.1;73.7
53954;HTU21D;39862;54.856;26.318;2022-12-22T06:19:45;4.1;73.7
53954;HTU21D;39862;54.856;26.318;2022-12-22T06:24:37;4;73.8
53954;HTU21D;39862;54.856;26.318;2022-12-22T06:29:47;4.1;73.8
53954;HTU21D;39862;54.856;26.318;2022-12-22T06:34:27;4.1;73.9
53954;HTU21D;39862;54.856;26.318;2022-12-22T06:39:35;4;73.9
53954;HTU21D;39862;54.856;26.318;2022-12-22T06:44:47;4.1;73.9
53954;HTU21D;39862;54.856;26.318;2022-12-22T06:49:37;4.1;73.9
53954;HTU21D;39862;54.856;26.318;2022-12-22T06:54:37;4.1;74
53954;HTU21D;39862;54.856;26.318;2022-12-22T06:59:37;4;74
53954;HTU21D;39862;54.856;26.318;2022-12-22T07:04:37;4;74
53954;HTU21D;39862;54.856;26.318;2022-12-22T07:09:35;4.1;74
53954;HTU21D;39862;54.856;26.318;2022-12-22T07:14:37;4.1;74
53954;HTU21D;39862;54.856;26.318;2022-12-22T07:19:27;4.1;74
53954;HTU21D;39862;54.856;26.318;2022-12-22T07:24:45;4.1;74
53954;HTU21D;39862;54.856;26.318;2022-12-22T07:29:27;4;74.1
53954;HTU21D;39862;54.856;26.318;2022-12-22T07:34:27;4;74.2
53954;HTU21D;39862;54.856;26.318;2022-12-22T07:39:27;4;74.2
53954;HTU21D;39862;54.856;26.318;2022-12-22T07:44:37;4;74.2
53954;HTU21D;39862;54.856;26.318;2022-12-22T07:49:37;4;74.4
53954;HTU21D;39862;54.856;26.318;2022-12-22T07:54:37;4;74.4
53954;HTU21D;39862;54.856;26.318;2022-12-22T07:59:37;4;74.4
53954;HTU21D;39862;54.856;26.318;2022-12-22T08:04:37;4;74.5
53954;HTU21D;39862;54.856;26.318;2022-12-22T08:09:37;4;74.4
53954;HTU21D;39862;54.856;26.318;2022-12-22T08:14:37;4;74.5
53954;HTU21D;39862;54.856;26.318;2022-12-22T08:19:27;4;74.6
53954;HTU21D;39862;54.856;26.318;2022-12-22T08:24:27;4.1;74.5
53954;HTU21D;39862;54.856;26.318;2022-12-22T08:29:28;4.1;74.4
53954;HTU21D;39862;54.856;26.318;2022-12-22T08:35:01;4;74.4
53954;HTU21D;39862;54.856;26.318;2022-12-22T08:39:38;4.1;74.4
53954;HTU21D;39862;54.856;26.318;2022-12-22T08:44:37;4.1;74.4
53954;HTU21D;39862;54.856;26.318;2022-12-22T08:49:27;4.1;74.4
53954;HTU21D;39862;54.856;26.318;2022-12-22T08:54:27;4.1;74.4
53954;HTU21D;39862;54.856;26.318;2022-12-22T08:59:27;4.1;74.4
53954;HTU21D;39862;54.856;26.318;2022-12-22T09:04:27;4.1;74.5
53954;HTU21D;39862;54.856;26.318;2022-12-22T09:09:29;4.1;74.5
53954;HTU21D;39862;54.856;26.318;2022-12-22T09:14:37;4.1;74.5
53954;HTU21D;39862;54.856;26.318;2022-12-22T09:19:37;4.1;74.6
53954;HTU21D;39862;54.856;26.318;2022-12-22T09:24:27;4.1;74.6
53954;HTU21D;39862;54.856;26.318;2022-12-22T09:29:27;4.1;74.6
53954;HTU21D;39862;54.856;26.318;2022-12-22T09:34:37;4.1;74.6
53954;HTU21D;39862;54.856;26.318;2022-12-22T09:39:27;4.1;74.6
53954;HTU21D;39862;54.856;26.318;2022-12-22T09:44:30;4.1;74.6
53954;HTU21D;39862;54.856;26.318;2022-12-22T09:49:37;4.2;74.5
53954;HTU21D;39862;54.856;26.318;2022-12-22T09:54:48;4.2;74.5
53954;HTU21D;39862;54.856;26.318;2022-12-22T09:59:27;4.2;74.4
53954;HTU21D;39862;54.856;26.318;2022-12-22T10:04:43;4.2;74.5
53954;HTU21D;39862;54.856;26.318;2022-12-22T10:10:05;4.2;74.5
53954;HTU21D;39862;54.856;26.318;2022-12-22T10:14:40;4.2;74.6
53954;HTU21D;39862;54.856;26.318;2022-12-22T10:19:27;4.2;74.7
53954;HTU21D;39862;54.856;26.318;2022-12-22T10:24:37;4.2;74.7
53954;HTU21D;39862;54.856;26.318;2022-12-22T10:30:30;4.2;74.7
53954;HTU21D;39862;54.856;26.318;2022-12-22T10:34:48;4.2;74.7
53954;HTU21D;39862;54.856;26.318;2022-12-22T10:39:37;4.2;74.7
53954;HTU21D;39862;54.856;26.318;2022-12-22T10:44:28;4.2;74.6
53954;HTU21D;39862;54.856;26.318;2022-12-22T10:49:28;4.2;74.6
53954;HTU21D;39862;54.856;26.318;2022-12-22T10:54:45;4.2;74.7
53954;HTU21D;39862;54.856;26.318;2022-12-22T10:59:48;4.2;74.7
53954;HTU21D;39862;54.856;26.318;2022-12-22T11:04:27;4.2;74.7
53954;HTU21D;39862;54.856;26.318;2022-12-22T11:09:39;4.2;74.8
53954;HTU21D;39862;54.856;26.318;2022-12-22T11:39:32;4.2;74.8
53954;HTU21D;39862;54.856;26.318;2022-12-22T11:45:01;4.2;74.8
53954;HTU21D;39862;54.856;26.318;2022-12-22T11:49:31;4.2;74.8
53954;HTU21D;39862;54.856;26.318;2022-12-22T11:55:32;4.2;74.8
53954;HTU21D;39862;54.856;26.318;2022-12-22T11:59:41;4.2;74.8
53954;HTU21D;39862;54.856;26.318;2022-12-22T12:04:31;4.2;74.8
53954;HTU21D;39862;54.856;26.318;2022-12-22T12:09:40;4.2;74.8
53954;HTU21D;39862;54.856;26.318;2022-12-22T12:14:43;4.2;74.8
53954;HTU21D;39862;54.856;26.318;2022-12-22T12:19:33;4.2;74.8
53954;HTU21D;39862;54.856;26.318;2022-12-22T12:24:32;4.2;74.8
53954;HTU21D;39862;54.856;26.318;2022-12-22T12:29:28;4.2;74.8
53954;HTU21D;39862;54.856;26.318;2022-12-22T12:34:40;4.2;74.8
53954;HTU21D;39862;54.856;26.318;2022-12-22T12:39:52;4.2;74.8
53954;HTU21D;39862;54.856;26.318;2022-12-22T12:44:30;4.2;74.8
53954;HTU21D;39862;54.856;26.318;2022-12-22T12:50:00;4.2;74.8
53954;HTU21D;39862;54.856;26.318;2022-12-22T12:54:49;4.2;74.8
53954;HTU21D;39862;54.856;26.318;2022-12-22T12:59:45;4.2;74.8
53954;HTU21D;39862;54.856;26.318;2022-12-22T13:04:59;4.2;74.8
53954;HTU21D;39862;54.856;26.318;2022-12-22T13:10:04;4.2;74.8
53954;HTU21D;39862;54.856;26.318;2022-12-22T13:14:59;4.2;74.8
53954;HTU21D;39862;54.856;26.318;2022-12-22T13:19:37;4.2;74.8
53954;HTU21D;39862;54.856;26.318;2022-12-22T13:24:49;4.2;74.8
53954;HTU21D;39862;54.856;26.318;2022-12-22T13:29:40;4.2;74.8
53954;HTU21D;39862;54.856;26.318;2022-12-22T13:35:13;4.2;74.8
53954;HTU21D;39862;54.856;26.318;2022-12-22T13:39:27;4.2;74.8
53954;HTU21D;39862;54.856;26.318;2022-12-22T13:44:28;4.2;74.8
53954;HTU21D;39862;54.856;26.318;2022-12-22T13:49:38;4.2;74.8
53954;HTU21D;39862;54.856;26.318;2022-12-22T13:54:29;4.2;74.8
53954;HTU21D;39862;54.856;26.318;2022-12-22T13:59:28;4.2;74.8
53954;HTU21D;39862;54.856;26.318;2022-12-22T14:05:02;4.2;74.8
53954;HTU21D;39862;54.856;26.318;2022-12-22T14:09:27;4.2;74.8
53954;HTU21D;39862;54.856;26.318;2022-12-22T14:14:40;4.2;74.8
53954;HTU21D;39862;54.856;26.318;2022-12-22T14:19:29;4.2;74.8
53954;HTU21D;39862;54.856;26.318;2022-12-22T14:24:58;4.2;74.8
53954;HTU21D;39862;54.856;26.318;2022-12-22T14:29:27;4.2;74.8
53954;HTU21D;39862;54.856;26.318;2022-12-22T14:34:28;4.2;74.8
53954;HTU21D;39862;54.856;26.318;2022-12-22T14:39:35;4.2;74.8
53954;HTU21D;39862;54.856;26.318;2022-12-22T14:45:01;4.2;74.8
53954;HTU21D;39862;54.856;26.318;2022-12-22T14:49:48;4.2;74.8
53954;HTU21D;39862;54.856;26.318;2022-12-22T14:54:48;4.2;74.8
53954;HTU21D;39862;54.856;26.318;2022-12-22T14:59:37;4.2;74.8
53954;HTU21D;39862;54.856;26.318;2022-12-22T15:04:28;4.2;74.8
53954;HTU21D;39862;54.856;26.318;2022-12-22T15:09:35;4.2;74.8
53954;HTU21D;39862;54.856;26.318;2022-12-22T15:14:28;4.2;74.8
53954;HTU21D;39862;54.856;26.318;2022-12-22T15:19:28;4.2;74.8
53954;HTU21D;39862;54.856;26.318;2022-12-22T15:24:27;4.2;74.8
53954;HTU21D;39862;54.856;26.318;2022-12-22T15:29:47;4.2;74.8
53954;HTU21D;39862;54.856;26.318;2022-12-22T15:34:28;4.2;74.8
53954;HTU21D;39862;54.856;26.318;2022-12-22T15:39:47;4.2;74.8
53954;HTU21D;39862;54.856;26.318;2022-12-22T15:44:37;4.2;74.8
53954;HTU21D;39862;54.856;26.318;2022-12-22T15:49:28;4.2;74.8
53954;HTU21D;39862;54.856;26.318;2022-12-22T15:54:28;4.2;74.8
53954;HTU21D;39862;54.856;26.318;2022-12-22T15:59:49;4.2;74.8
53954;HTU21D;39862;54.856;26.318;2022-12-22T16:04:27;4.2;74.8
53954;HTU21D;39862;54.856;26.318;2022-12-22T16:09:59;4.2;74.8
53954;HTU21D;39862;54.856;26.318;2022-12-22T16:14:50;4.2;74.8
53954;HTU21D;39862;54.856;26.318;2022-12-22T16:19:27;4.2;74.8
53954;HTU21D;39862;54.856;26.318;2022-12-22T16:24:49;4.2;74.8
53954;HTU21D;39862;54.856;26.318;2022-12-22T16:29:27;4.2;74.8
53954;HTU21D;39862;54.856;26.318;2022-12-22T16:34:27;4.2;74.8
53954;HTU21D;39862;54.856;26.318;2022-12-22T16:39:37;4.2;74.8
53954;HTU21D;39862;54.856;26.318;2022-12-22T16:44:37;4.2;74.8
53954;HTU21D;39862;54.856;26.318;2022-12-22T16:49:37;4.2;74.8
53954;HTU21D;39862;54.856;26.318;2022-12-22T16:54:47;4.2;74.8
53954;HTU21D;39862;54.856;26.318;2022-12-22T16:59:37;4.2;74.8
53954;HTU21D;39862;54.856;26.318;2022-12-22T17:04:49;4.2;74.8
53954;HTU21D;39862;54.856;26.318;2022-12-22T17:09:28;4.2;74.8
53954;HTU21D;39862;54.856;26.318;2022-12-22T17:14:36;4.2;74.8
53954;HTU21D;39862;54.856;26.318;2022-12-22T17:19:48;4.2;74.8
53954;HTU21D;39862;54.856;26.318;2022-12-22T17:24:38;4.2;74.8
53954;HTU21D;39862;54.856;26.318;2022-12-22T17:30:02;4.2;74.8
53954;HTU21D;39862;54.856;26.318;2022-12-22T17:34:39;4.2;74.8
53954;HTU21D;39862;54.856;26.318;2022-12-22T17:39:37;4.2;74.8
53954;HTU21D;39862;54.856;26.318;2022-12-22T17:44:35;4.2;74.8
53954;HTU21D;39862;54.856;26.318;2022-12-22T17:49:27;4.2;74.8
53954;HTU21D;39862;54.856;26.318;2022-12-22T17:54:50;4.2;74.8
53954;HTU21D;39862;54.856;26.318;2022-12-22T17:59:28;4.2;74.8
53954;HTU21D;39862;54.856;26.318;2022-12-22T18:04:50;4.2;74.8
53954;HTU21D;39862;54.856;26.318;2022-12-22T18:09:27;4.2;74.8
53954;HTU21D;39862;54.856;26.318;2022-12-22T18:14:27;4.2;74.8
53954;HTU21D;39862;54.856;26.318;2022-12-22T18:19:59;4.2;74.8
53954;HTU21D;39862;54.856;26.318;2022-12-22T18:24:48;4.2;74.8
53954;HTU21D;39862;54.856;26.318;2022-12-22T18:29:27;4.2;74.8
53954;HTU21D;39862;54.856;26.318;2022-12-22T18:34:47;4.2;74.8
53954;HTU21D;39862;54.856;26.318;2022-12-22T18:39:28;4.2;74.8
53954;HTU21D;39862;54.856;26.318;2022-12-22T18:44:50;4.2;74.8
53954;HTU21D;39862;54.856;26.318;2022-12-22T18:49:50;4.2;74.8
53954;HTU21D;39862;54.856;26.318;2022-12-22T18:54:40;4.2;74.8
53954;HTU21D;39862;54.856;26.318;2022-12-22T18:59:27;4.2;74.8
53954;HTU21D;39862;54.856;26.318;2022-12-22T19:04:57;4.2;74.8
53954;HTU21D;39862;54.856;26.318;2022-12-22T19:09:27;4.2;74.8
53954;HTU21D;39862;54.856;26.318;2022-12-22T19:14:48;4.2;74.8
53954;HTU21D;39862;54.856;26.318;2022-12-22T19:19:37;4.2;74.8
53954;HTU21D;39862;54.856;26.318;2022-12-22T19:24:37;4.2;74.8
53954;HTU21D;39862;54.856;26.318;2022-12-22T19:29:49;4.2;74.8
53954;HTU21D;39862;54.856;26.318;2022-12-22T19:34:39;4.2;74.8
53954;HTU21D;39862;54.856;26.318;2022-12-22T19:39:45;4.2;74.8
53954;HTU21D;39862;54.856;26.318;2022-12-22T19:44:35;4.2;74.8
53954;HTU21D;39862;54.856;26.318;2022-12-22T19:49:28;4.2;74.8
53954;HTU21D;39862;54.856;26.318;2022-12-22T19:54:47;4.2;74.8
53954;HTU21D;39862;54.856;26.318;2022-12-22T19:59:48;4.2;74.8
53954;HTU21D;39862;54.856;26.318;2022-12-22T20:04:39;4.2;74.8
53954;HTU21D;39862;54.856;26.318;2022-12-22T20:09:37;4.2;74.8
53954;HTU21D;39862;54.856;26.318;2022-12-22T20:15:00;4.2;74.8
53954;HTU21D;39862;54.856;26.318;2022-12-22T20:19:27;4.2;74.8
53954;HTU21D;39862;54.856;26.318;2022-12-22T20:24:49;4.2;74.8
53954;HTU21D;39862;54.856;26.318;2022-12-22T20:29:27;4.2;74.8
53954;HTU21D;39862;54.856;26.318;2022-12-22T20:34:47;4.2;74.8
53954;HTU21D;39862;54.856;26.318;2022-12-22T20:39:47;4.2;74.8
53954;HTU21D;39862;54.856;26.318;2022-12-22T20:44:48;4.2;74.8
53954;HTU21D;39862;54.856;26.318;2022-12-22T20:49:38;4.2;74.8
53954;HTU21D;39862;54.856;26.318;2022-12-22T20:54:51;4.2;74.8
53954;HTU21D;39862;54.856;26.318;2022-12-22T20:59:27;4.2;74.8
53954;HTU21D;39862;54.856;26.318;2022-12-22T21:04:37;4.2;74.8
53954;HTU21D;39862;54.856;26.318;2022-12-22T21:09:37;4.3;76
53954;HTU21D;39862;54.856;26.318;2022-12-22T21:14:35;4.3;76
53954;HTU21D;39862;54.856;26.318;2022-12-22T21:19:42;4.3;76
53954;HTU21D;39862;54.856;26.318;2022-12-22T21:24:27;4.3;76
53954;HTU21D;39862;54.856;26.318;2022-12-22T21:29:27;4.3;76
53954;HTU21D;39862;54.856;26.318;2022-12-22T21:34:27;4.3;76
53954;HTU21D;39862;54.856;26.318;2022-12-22T21:39:30;4.3;75.9
53954;HTU21D;39862;54.856;26.318;2022-12-22T21:44:39;4.3;76
53954;HTU21D;39862;54.856;26.318;2022-12-22T21:49:47;4.3;76
